createdAt,value
2023-01-13T00:03:54.926Z,4.73
2023-01-13T00:06:53.265Z,4.40
2023-01-13T00:09:31.213Z,3.67
2023-01-13T00:12:22.488Z,5.27
2023-01-13T00:15:21.771Z,3.90
2023-01-13T00:18:16.657Z,4.17
2023-01-13T00:21:13.250Z,4.43
2023-01-13T00:24:09.698Z,4.10
2023-01-13T00:26:41.127Z,3.77
2023-01-13T00:29:12.014Z,4.70
2023-01-13T00:32:08.154Z,4.67
2023-01-13T00:34:51.044Z,4.60
2023-01-13T00:37:30.538Z,4.60
2023-01-13T00:40:18.428Z,4.60
2023-01-13T00:45:52.845Z,4.60
2023-01-13T00:48:40.807Z,5.13
2023-01-13T00:51:15.842Z,4.23
2023-01-13T00:53:51.356Z,4.73
2023-01-13T00:56:39.757Z,5.07
2023-01-13T00:59:16.253Z,4.63
2023-01-13T01:02:03.606Z,5.07
2023-01-13T01:04:51.959Z,5.50
2023-01-13T01:07:25.361Z,4.73
2023-01-13T01:10:04.688Z,5.20
2023-01-13T01:12:40.625Z,5.47
2023-01-13T01:15:17.924Z,4.63
2023-01-13T01:17:49.476Z,5.50
2023-01-13T01:20:36.744Z,5.53
2023-01-13T01:23:07.902Z,4.87
2023-01-13T01:28:21.727Z,5.87
2023-01-13T01:31:10.403Z,8.40
2023-01-13T01:33:48.664Z,3.17
2023-01-13T01:36:26.780Z,5.57
2023-01-13T01:38:59.077Z,6.03
2023-01-13T01:41:34.258Z,4.57
2023-01-13T01:44:09.869Z,6.03
2023-01-13T01:46:44.757Z,4.87
2023-01-13T01:49:25.948Z,5.63
2023-01-13T01:52:16.695Z,5.63
2023-01-13T01:55:05.365Z,4.97
2023-01-13T01:57:47.295Z,5.50
2023-01-13T02:00:37.302Z,5.00
2023-01-13T02:09:24.127Z,5.60
2023-01-13T02:12:15.657Z,4.47
2023-01-13T02:14:50.712Z,4.57
2023-01-13T02:17:44.741Z,4.87
2023-01-13T02:21:32.032Z,4.80
2023-01-13T02:25:06.469Z,6.13
2023-01-13T02:28:00.908Z,5.40
2023-01-13T02:31:13.976Z,4.57
2023-01-13T02:34:11.555Z,4.97
2023-01-13T02:36:52.680Z,4.67
2023-01-13T02:39:51.617Z,4.07
2023-01-13T02:42:51.539Z,4.53
2023-01-13T02:48:34.412Z,5.97
2023-01-13T02:51:19.840Z,4.80
2023-01-13T02:54:21.873Z,4.70
2023-01-13T02:57:04.292Z,5.10
2023-01-13T02:59:42.231Z,5.43
2023-01-13T03:02:18.726Z,4.23
2023-01-13T03:05:05.870Z,5.37
2023-01-13T03:08:30.737Z,3.90
2023-01-13T03:11:17.143Z,4.80
2023-01-13T03:14:40.247Z,4.47
2023-01-13T03:17:25.901Z,4.70
2023-01-13T03:20:08.603Z,5.13
2023-01-13T03:23:08.073Z,7.03
2023-01-13T03:25:53.551Z,4.80
2023-01-13T03:28:30.035Z,6.00
2023-01-13T03:31:27.627Z,3.93
2023-01-13T03:34:07.553Z,5.50
2023-01-13T03:36:40.859Z,4.30
2023-01-13T03:39:56.638Z,4.03
2023-01-13T03:42:31.787Z,6.27
2023-01-13T03:45:10.287Z,4.57
2023-01-13T03:48:02.244Z,6.60
2023-01-13T03:50:39.876Z,4.63
2023-01-13T03:56:23.013Z,4.63
2023-01-13T03:59:06.076Z,4.90
2023-01-13T04:02:19.298Z,4.13
2023-01-13T04:05:05.500Z,4.60
2023-01-13T04:07:50.422Z,4.67
2023-01-13T04:10:37.729Z,3.83
2023-01-13T04:13:21.599Z,4.80
2023-01-13T04:16:06.459Z,4.80
2023-01-13T04:18:43.532Z,4.90
2023-01-13T04:21:15.519Z,5.50
2023-01-13T04:23:46.914Z,5.13
2023-01-13T04:26:50.255Z,5.10
2023-01-13T04:29:20.941Z,4.17
2023-01-13T04:31:52.017Z,4.90
2023-01-13T04:34:20.771Z,4.60
2023-01-13T04:36:49.653Z,5.43
2023-01-13T04:39:26.261Z,4.27
2023-01-13T04:42:15.028Z,5.70
2023-01-13T04:44:46.313Z,5.17
2023-01-13T04:47:17.460Z,5.73
2023-01-13T04:49:46.184Z,4.43
2023-01-13T04:52:17.632Z,5.23
2023-01-13T04:54:46.460Z,5.77
2023-01-13T04:57:16.565Z,5.63
2023-01-13T04:59:45.266Z,3.90
2023-01-13T05:02:19.884Z,4.50
2023-01-13T05:04:49.288Z,4.00
2023-01-13T05:08:28.388Z,5.33
2023-01-13T05:14:25.799Z,6.07
2023-01-13T05:17:04.451Z,4.93
2023-01-13T05:19:39.373Z,4.83
2023-01-13T05:22:26.082Z,5.37
2023-01-13T05:25:15.460Z,5.10
2023-01-13T05:27:49.791Z,4.63
2023-01-13T05:30:22.512Z,5.83
2023-01-13T05:32:51.301Z,4.83
2023-01-13T05:35:22.425Z,5.17
2023-01-13T05:37:51.571Z,4.70
2023-01-13T05:40:38.668Z,4.67
2023-01-13T05:43:24.908Z,4.63
2023-01-13T05:46:08.627Z,5.70
2023-01-13T05:48:41.659Z,4.60
2023-01-13T05:51:46.557Z,5.47
2023-01-13T05:54:29.978Z,5.40
2023-01-13T05:57:00.076Z,4.53
2023-01-13T05:59:29.799Z,4.50
2023-01-13T06:01:59.835Z,3.87
2023-01-13T06:07:27.421Z,4.60
2023-01-13T06:10:00.467Z,3.97
2023-01-13T06:12:32.246Z,3.87
2023-01-13T06:15:01.421Z,3.90
2023-01-13T06:17:37.563Z,4.00
2023-01-13T06:20:09.811Z,4.57
2023-01-13T06:22:55.873Z,4.10
2023-01-13T06:25:41.613Z,3.53
2023-01-13T06:33:53.538Z,3.47
2023-01-13T06:36:30.563Z,3.50
2023-01-13T06:39:07.168Z,3.20
2023-01-13T06:41:54.532Z,3.60
2023-01-13T06:44:25.175Z,4.63
2023-01-13T06:46:54.233Z,3.07
2023-01-13T06:49:24.257Z,3.37
2023-01-13T06:51:55.852Z,3.53
2023-01-13T06:54:27.711Z,3.67
2023-01-13T06:57:15.965Z,3.27
2023-01-13T06:59:45.085Z,3.77
2023-01-13T07:02:14.000Z,2.77
2023-01-13T07:05:00.731Z,3.90
2023-01-13T07:07:45.844Z,2.30
2023-01-13T07:10:27.196Z,3.03
2023-01-13T07:13:25.659Z,2.93
2023-01-13T07:19:02.359Z,2.47
2023-01-13T07:21:39.231Z,3.03
2023-01-13T07:26:56.782Z,2.60
2023-01-13T07:29:30.564Z,3.10
2023-01-13T07:32:02.347Z,3.20
2023-01-13T07:34:31.489Z,3.67
2023-01-13T07:37:03.585Z,2.60
2023-01-13T07:39:35.237Z,2.80
2023-01-13T07:42:21.476Z,2.93
2023-01-13T07:45:12.376Z,3.63
2023-01-13T07:48:27.150Z,2.50
2023-01-13T07:51:26.919Z,2.67
2023-01-13T07:54:02.144Z,2.77
2023-01-13T07:56:30.937Z,3.37
2023-01-13T07:59:16.573Z,3.43
2023-01-13T08:01:55.420Z,3.10
2023-01-13T08:04:24.536Z,3.00
2023-01-13T08:06:53.366Z,3.73
2023-01-13T08:09:37.469Z,3.67
2023-01-13T08:12:52.220Z,3.43
2023-01-13T08:15:35.941Z,3.00
2023-01-13T08:18:05.998Z,2.47
2023-01-13T08:20:37.171Z,4.50
2023-01-13T08:25:51.881Z,3.30
2023-01-13T08:28:24.859Z,3.57
2023-01-13T08:33:43.269Z,4.43
2023-01-13T08:36:19.437Z,3.23
2023-01-13T08:39:03.790Z,3.83
2023-01-13T08:42:08.961Z,3.23
2023-01-13T08:45:03.906Z,3.53
2023-01-13T08:47:53.078Z,3.43
2023-01-13T08:50:51.083Z,3.23
2023-01-13T08:53:57.240Z,3.47
2023-01-13T08:56:54.417Z,3.00
2023-01-13T08:59:50.544Z,3.70
2023-01-13T09:05:17.695Z,4.23
2023-01-13T09:08:11.279Z,3.30
2023-01-13T09:11:29.121Z,3.60
2023-01-13T09:17:41.585Z,3.37
2023-01-13T09:20:49.111Z,2.97
2023-01-13T09:23:45.297Z,3.13
2023-01-13T09:26:46.205Z,3.50
2023-01-13T09:29:29.378Z,3.47
2023-01-13T09:35:04.787Z,3.50
2023-01-13T09:37:57.676Z,3.50
2023-01-13T09:40:26.730Z,3.23
2023-01-13T09:43:21.084Z,3.47
2023-01-13T09:46:07.590Z,2.80
2023-01-13T09:48:56.619Z,4.17
2023-01-13T09:51:35.358Z,4.00
2023-01-13T09:54:20.084Z,4.50
2023-01-13T09:59:55.022Z,3.80
2023-01-13T10:02:55.444Z,3.97
2023-01-13T10:05:43.660Z,3.87
2023-01-13T10:12:03.340Z,4.10
2023-01-13T10:18:25.027Z,4.97
2023-01-13T10:21:52.995Z,4.30
2023-01-13T10:28:44.383Z,4.27
2023-01-13T10:31:26.137Z,3.50
2023-01-13T10:38:09.310Z,3.57
2023-01-13T10:41:03.101Z,3.40
2023-01-13T10:44:02.511Z,3.57
2023-01-13T10:47:12.359Z,3.53
2023-01-13T10:50:45.213Z,3.60
2023-01-13T10:54:17.688Z,2.90
2023-01-13T10:57:01.018Z,3.97
2023-01-13T11:00:04.383Z,3.33
2023-01-13T11:02:49.995Z,4.23
2023-01-13T11:06:00.476Z,3.80
2023-01-13T11:08:48.024Z,4.10
2023-01-13T11:11:58.497Z,3.83
2023-01-13T11:15:20.230Z,3.60
2023-01-13T11:18:08.150Z,3.53
2023-01-13T11:21:03.778Z,5.10
2023-01-13T11:23:51.509Z,4.40
2023-01-13T11:26:50.123Z,4.10
2023-01-13T11:30:08.478Z,3.10
2023-01-13T11:32:59.102Z,3.57
2023-01-13T11:35:41.358Z,4.20
2023-01-13T11:38:47.919Z,3.83
2023-01-13T11:42:39.227Z,2.87
2023-01-13T11:45:33.008Z,3.80
2023-01-13T11:52:16.079Z,2.70
2023-01-13T11:55:31.438Z,3.20
2023-01-13T11:58:50.816Z,3.00
2023-01-13T12:02:04.636Z,3.47
2023-01-13T12:04:56.393Z,3.33
2023-01-13T12:07:59.793Z,3.87
2023-01-13T12:11:06.426Z,3.27
2023-01-13T12:14:06.210Z,3.47
2023-01-13T12:16:54.231Z,3.40
2023-01-13T12:19:42.650Z,3.10
2023-01-13T12:22:27.983Z,3.70
2023-01-13T12:25:13.676Z,4.07
2023-01-13T12:27:57.909Z,2.50
2023-01-13T12:31:11.450Z,3.30
2023-01-13T12:35:06.880Z,3.50
2023-01-13T12:38:11.387Z,2.47
2023-01-13T12:41:17.340Z,2.80
2023-01-13T12:48:05.283Z,3.00
2023-01-13T12:51:29.405Z,2.43
2023-01-13T13:02:10.188Z,2.80
2023-01-13T13:06:18.776Z,2.67
2023-01-13T13:09:49.099Z,2.10
2023-01-13T13:13:23.818Z,2.87
2023-01-13T13:16:48.483Z,2.50
2023-01-13T13:23:29.983Z,2.57
2023-01-13T13:26:44.880Z,2.20
2023-01-13T13:29:56.027Z,2.30
2023-01-13T13:33:23.152Z,2.03
2023-01-13T13:36:17.227Z,2.30
2023-01-13T13:40:14.165Z,2.37
2023-01-13T13:43:13.232Z,2.93
2023-01-13T13:47:09.163Z,2.50
2023-01-13T13:57:18.181Z,2.67
2023-01-13T14:00:17.768Z,3.00
2023-01-13T14:03:22.457Z,3.30
2023-01-13T14:06:45.600Z,2.80
2023-01-13T14:09:53.255Z,2.10
2023-01-13T14:13:15.459Z,2.23
2023-01-13T14:16:11.078Z,2.50
2023-01-13T14:19:27.952Z,2.53
2023-01-13T14:22:27.420Z,2.03
2023-01-13T14:28:55.826Z,1.80
2023-01-13T14:35:04.295Z,1.93
2023-01-13T14:38:18.027Z,2.07
2023-01-13T14:44:37.303Z,2.70
2023-01-13T14:48:05.592Z,2.17
2023-01-13T14:51:16.598Z,3.37
2023-01-13T14:54:07.716Z,2.27
2023-01-13T14:57:02.188Z,2.30
2023-01-13T15:00:02.953Z,2.00
2023-01-13T15:02:58.568Z,2.93
2023-01-13T15:09:00.899Z,1.80
2023-01-13T15:12:50.517Z,2.47
2023-01-13T15:16:05.120Z,2.70
2023-01-13T15:19:41.177Z,2.20
2023-01-13T15:22:58.417Z,1.63
2023-01-13T15:26:01.070Z,2.57
2023-01-13T15:28:50.050Z,1.90
2023-01-13T15:31:59.332Z,2.73
2023-01-13T15:35:28.427Z,2.03
2023-01-13T15:38:09.684Z,2.27
2023-01-13T15:48:10.826Z,1.93
2023-01-13T15:51:03.564Z,3.03
2023-01-13T15:54:06.476Z,2.73
2023-01-13T15:57:30.506Z,3.27
2023-01-13T16:00:53.271Z,2.37
2023-01-13T16:04:27.956Z,2.83
2023-01-13T16:07:33.394Z,3.23
2023-01-13T16:10:20.547Z,3.27
2023-01-13T16:13:31.714Z,2.10
2023-01-13T16:16:24.109Z,2.97
2023-01-13T16:26:33.221Z,2.73
2023-01-13T16:29:19.749Z,2.30
2023-01-13T16:31:55.789Z,2.63
2023-01-13T16:34:28.485Z,3.07
2023-01-13T16:36:57.409Z,2.90
2023-01-13T16:39:28.856Z,2.30
2023-01-13T16:42:16.230Z,2.13
2023-01-13T16:45:42.152Z,2.37
2023-01-13T16:48:44.301Z,3.13
2023-01-13T16:52:12.016Z,2.40
2023-01-13T16:59:44.230Z,2.40
2023-01-13T17:06:35.149Z,3.53
2023-01-13T17:09:22.555Z,2.53
2023-01-13T17:12:08.754Z,3.27
2023-01-13T17:14:54.286Z,2.87
2023-01-13T17:17:28.033Z,3.77
2023-01-13T17:20:03.157Z,3.57
2023-01-13T17:22:47.489Z,3.03
2023-01-13T17:25:44.858Z,3.33
2023-01-13T17:29:01.020Z,3.63
2023-01-13T17:32:05.274Z,3.13
2023-01-13T17:34:54.032Z,2.97
2023-01-13T17:37:52.221Z,3.20
2023-01-13T17:41:03.317Z,3.37
2023-01-13T17:43:39.229Z,2.93
2023-01-13T17:47:09.668Z,3.30
2023-01-13T17:49:50.326Z,3.17
2023-01-13T17:52:30.262Z,3.17
2023-01-13T17:55:38.879Z,4.00
2023-01-13T17:58:12.718Z,3.17
2023-01-13T18:00:49.209Z,3.27
2023-01-13T18:03:28.461Z,3.93
2023-01-13T18:06:19.467Z,3.43
2023-01-13T18:09:01.328Z,3.70
2023-01-13T18:11:52.681Z,3.07
2023-01-13T18:14:32.179Z,3.67
2023-01-13T18:17:26.204Z,3.83
2023-01-13T18:20:29.660Z,4.47
2023-01-13T18:23:45.450Z,3.80
2023-01-13T18:26:45.129Z,3.40
2023-01-13T18:29:40.690Z,3.50
2023-01-13T18:32:21.825Z,3.67
2023-01-13T18:35:05.279Z,3.30
2023-01-13T18:37:54.786Z,3.40
2023-01-13T18:40:29.591Z,3.07
2023-01-13T18:43:01.789Z,2.90
2023-01-13T18:45:45.066Z,2.47
2023-01-13T18:48:15.104Z,2.93
2023-01-13T18:50:46.727Z,3.07
2023-01-13T18:53:17.643Z,2.80
2023-01-13T18:55:51.503Z,2.73
2023-01-13T18:58:30.178Z,3.23
2023-01-13T19:01:03.648Z,3.57
2023-01-13T19:03:32.676Z,3.20
2023-01-13T19:06:09.224Z,2.90
2023-01-13T19:08:41.748Z,3.40
2023-01-13T19:11:12.440Z,3.40
2023-01-13T19:13:42.358Z,3.00
2023-01-13T19:16:14.421Z,3.40
2023-01-13T19:18:43.158Z,2.87
2023-01-13T19:21:13.519Z,3.10
2023-01-13T19:23:45.041Z,3.23
2023-01-13T19:26:14.735Z,2.77
2023-01-13T19:28:44.878Z,2.73
2023-01-13T19:31:17.232Z,3.70
2023-01-13T19:33:47.424Z,3.23
2023-01-13T19:36:15.924Z,4.53
2023-01-13T19:38:46.105Z,3.00
2023-01-13T19:41:35.060Z,4.13
2023-01-13T19:44:20.822Z,2.47
2023-01-13T19:46:49.368Z,3.17
2023-01-13T19:49:25.593Z,2.60
2023-01-13T19:52:01.334Z,3.50
2023-01-13T19:54:32.754Z,3.40
2023-01-13T19:57:25.252Z,3.10
2023-01-13T19:59:54.961Z,2.80
2023-01-13T20:02:41.054Z,2.50
2023-01-13T20:08:08.922Z,2.83
2023-01-13T20:11:20.869Z,3.20
2023-01-13T20:13:52.587Z,2.30
2023-01-13T20:16:24.243Z,3.07
2023-01-13T20:19:06.468Z,2.33
2023-01-13T20:21:49.833Z,2.50
2023-01-13T20:27:25.096Z,1.60
2023-01-13T20:29:57.717Z,1.33
2023-01-13T20:32:43.752Z,1.90
2023-01-13T20:35:49.799Z,1.50
2023-01-13T20:38:44.470Z,1.40
2023-01-13T20:41:33.032Z,1.50
2023-01-13T20:44:04.196Z,1.47
2023-01-13T20:46:49.278Z,1.23
2023-01-13T20:49:20.517Z,1.23
2023-01-13T20:52:31.895Z,1.90
2023-01-13T20:55:03.058Z,1.27
2023-01-13T20:57:42.266Z,1.00
2023-01-13T21:00:40.289Z,1.27
2023-01-13T21:03:22.401Z,1.27
2023-01-13T21:05:53.783Z,1.57
2023-01-13T21:08:49.835Z,1.40
2023-01-13T21:15:10.931Z,1.70
2023-01-13T21:18:07.476Z,1.87
2023-01-13T21:20:45.326Z,2.13
2023-01-13T21:23:15.802Z,1.83
2023-01-13T21:25:46.764Z,2.10
2023-01-13T21:28:22.460Z,1.80
2023-01-13T21:30:54.155Z,1.97
2023-01-13T21:33:30.114Z,2.00
2023-01-13T21:36:06.941Z,1.97
2023-01-13T21:38:42.974Z,2.07
2023-01-13T21:41:37.163Z,1.90
2023-01-13T21:44:28.357Z,2.00
2023-01-13T21:47:19.696Z,1.90
2023-01-13T21:49:59.896Z,1.63
2023-01-13T21:52:39.328Z,1.90
2023-01-13T21:55:43.991Z,2.07
2023-01-13T21:58:34.310Z,2.23
2023-01-13T22:07:26.192Z,2.47
2023-01-13T22:09:59.780Z,2.33
2023-01-13T22:12:29.811Z,1.60
2023-01-13T22:14:58.663Z,1.80
2023-01-13T22:17:32.522Z,2.20
2023-01-13T22:20:02.545Z,1.93
2023-01-13T22:22:44.510Z,1.90
2023-01-13T22:25:20.414Z,2.33
2023-01-13T22:27:54.217Z,3.03
2023-01-13T22:30:51.333Z,2.63
2023-01-13T22:33:40.407Z,2.37
2023-01-13T22:39:08.230Z,2.83
2023-01-13T22:41:45.622Z,2.77
2023-01-13T22:44:15.787Z,1.90
2023-01-13T22:46:53.108Z,2.00
2023-01-13T22:49:23.192Z,1.50
2023-01-13T22:51:52.531Z,1.20
2023-01-13T22:54:23.416Z,1.50
2023-01-13T22:57:03.813Z,1.37
2023-01-13T22:59:33.425Z,1.40
2023-01-13T23:02:07.282Z,1.30
2023-01-13T23:04:51.270Z,1.17
2023-01-13T23:07:45.735Z,1.40
2023-01-13T23:10:25.485Z,1.50
2023-01-13T23:12:56.930Z,1.67
2023-01-13T23:18:11.502Z,2.17
2023-01-13T23:20:40.385Z,2.23
2023-01-13T23:26:33.727Z,2.83
2023-01-13T23:31:56.229Z,2.37
2023-01-13T23:34:27.052Z,2.60
2023-01-13T23:36:55.676Z,3.43
2023-01-13T23:39:35.240Z,2.40
2023-01-13T23:42:37.997Z,3.27
2023-01-13T23:45:19.006Z,2.67
2023-01-13T23:48:03.918Z,2.63
